createdAt,value
2018-05-07T00:02:19.960Z,64.70
2018-05-07T00:04:47.684Z,65.10
2018-05-07T00:07:15.966Z,65.50
2018-05-07T00:09:43.537Z,65.40
2018-05-07T00:12:10.964Z,65.50
2018-05-07T00:14:38.436Z,65.50
2018-05-07T00:17:06.729Z,65.60
2018-05-07T00:19:34.212Z,65.50
2018-05-07T00:22:01.707Z,65.60
2018-05-07T00:24:29.218Z,65.60
2018-05-07T00:26:56.728Z,65.70
2018-05-07T00:29:25.034Z,66.70
2018-05-07T00:31:52.595Z,67.10
2018-05-07T00:34:20.840Z,66.80
2018-05-07T00:36:49.109Z,66.90
2018-05-07T00:39:16.612Z,66.80
2018-05-07T00:41:44.144Z,67.10
2018-05-07T00:44:12.392Z,67.50
2018-05-07T00:46:39.880Z,67.50
2018-05-07T00:49:08.164Z,67.70
2018-05-07T00:51:36.466Z,67.70
2018-05-07T00:54:04.027Z,67.60
2018-05-07T00:56:32.436Z,67.90
2018-05-07T00:59:00.018Z,68.10
2018-05-07T01:01:28.316Z,68.50
2018-05-07T01:03:55.813Z,68.50
2018-05-07T01:06:23.358Z,68.90
2018-05-07T01:08:50.877Z,69.20
2018-05-07T01:11:19.297Z,69.20
2018-05-07T01:13:46.817Z,69.10
2018-05-07T01:16:15.084Z,70.20
2018-05-07T01:18:43.681Z,70.10
2018-05-07T01:21:11.945Z,69.60
2018-05-07T01:23:40.233Z,69.00
2018-05-07T01:26:08.525Z,68.80
2018-05-07T01:28:36.143Z,68.80
2018-05-07T01:31:03.632Z,68.70
2018-05-07T01:33:31.125Z,68.60
2018-05-07T01:35:58.652Z,68.60
2018-05-07T01:38:26.965Z,68.90
2018-05-07T01:40:54.501Z,68.80
2018-05-07T01:49:04.377Z,69.00
2018-05-07T01:54:24.059Z,69.00
2018-05-07T01:56:52.317Z,68.70
2018-05-07T01:59:19.830Z,68.70
2018-05-07T02:01:47.383Z,68.50
2018-05-07T02:04:14.867Z,68.50
2018-05-07T02:06:42.473Z,68.50
2018-05-07T02:09:10.741Z,68.70
2018-05-07T02:11:39.007Z,69.20
2018-05-07T02:14:06.511Z,69.20
2018-05-07T02:16:34.039Z,69.30
2018-05-07T02:19:02.319Z,69.00
2018-05-07T02:21:29.807Z,68.90
2018-05-07T02:23:57.337Z,68.90
2018-05-07T02:26:24.822Z,69.00
2018-05-07T02:28:52.319Z,68.70
2018-05-07T02:31:20.696Z,69.90
2018-05-07T02:33:49.771Z,69.50
2018-05-07T02:36:17.275Z,69.40
2018-05-07T02:38:45.592Z,69.40
2018-05-07T02:41:13.215Z,69.30
2018-05-07T02:43:40.753Z,69.40
2018-05-07T02:46:08.262Z,69.40
2018-05-07T02:48:35.812Z,69.50
2018-05-07T02:51:03.293Z,69.40
2018-05-07T02:53:30.860Z,69.50
2018-05-07T02:55:58.455Z,69.50
2018-05-07T02:58:26.742Z,69.60
2018-05-07T03:00:55.115Z,69.30
2018-05-07T03:03:23.369Z,69.40
2018-05-07T03:05:50.953Z,69.40
2018-05-07T03:08:19.213Z,69.40
2018-05-07T03:10:46.731Z,69.30
2018-05-07T03:13:14.853Z,69.40
2018-05-07T03:15:43.130Z,69.50
2018-05-07T03:18:11.417Z,70.00
2018-05-07T03:20:38.955Z,69.90
2018-05-07T03:23:06.444Z,70.00
2018-05-07T03:25:33.936Z,70.20
2018-05-07T03:28:02.400Z,70.30
2018-05-07T03:30:29.879Z,70.10
2018-05-07T03:32:57.383Z,70.30
2018-05-07T03:35:25.764Z,71.10
2018-05-07T03:37:53.290Z,71.00
2018-05-07T03:40:20.784Z,71.00
2018-05-07T03:42:48.442Z,71.10
2018-05-07T03:45:16.712Z,70.40
2018-05-07T03:47:44.970Z,70.30
2018-05-07T03:50:12.464Z,70.30
2018-05-07T03:52:40.009Z,70.40
2018-05-07T03:55:08.284Z,70.70
2018-05-07T03:57:36.560Z,70.80
2018-05-07T04:00:05.469Z,70.80
2018-05-07T04:02:32.962Z,70.60
2018-05-07T04:05:00.556Z,70.50
2018-05-07T04:07:28.850Z,70.60
2018-05-07T04:09:57.157Z,70.10
2018-05-07T04:12:24.671Z,70.00
2018-05-07T04:14:52.167Z,69.90
2018-05-07T04:17:31.705Z,69.80
2018-05-07T04:20:11.230Z,69.70
2018-05-07T04:22:51.427Z,70.00
2018-05-07T04:25:18.977Z,70.00
2018-05-07T04:27:46.585Z,69.80
2018-05-07T04:30:14.873Z,69.50
2018-05-07T04:32:43.123Z,69.00
2018-05-07T04:35:10.617Z,69.00
2018-05-07T04:37:38.259Z,68.80
2018-05-07T04:40:06.559Z,68.20
2018-05-07T04:42:34.049Z,68.10
2018-05-07T04:45:01.558Z,67.70
2018-05-07T04:47:29.811Z,67.40
2018-05-07T04:49:57.337Z,67.40
2018-05-07T04:52:24.849Z,68.10
2018-05-07T04:54:53.115Z,66.90
2018-05-07T04:57:21.589Z,66.40
2018-05-07T04:59:49.075Z,66.40
2018-05-07T05:02:16.602Z,66.00
2018-05-07T05:04:44.077Z,65.80
2018-05-07T05:07:12.484Z,65.20
2018-05-07T05:09:39.942Z,65.20
2018-05-07T05:12:07.462Z,65.20
2018-05-07T05:14:35.764Z,65.00
2018-05-07T05:17:03.262Z,64.90
2018-05-07T05:19:30.751Z,65.20
2018-05-07T05:21:59.120Z,66.10
2018-05-07T05:24:27.619Z,66.00
2018-05-07T05:26:55.904Z,66.20
2018-05-07T05:29:24.175Z,64.60
2018-05-07T05:31:51.739Z,64.60
2018-05-07T05:34:19.236Z,64.20
2018-05-07T05:36:46.780Z,64.60
2018-05-07T05:39:14.294Z,63.60
2018-05-07T05:41:44.134Z,63.40
2018-05-07T05:44:12.408Z,63.00
2018-05-07T05:46:39.906Z,63.00
2018-05-07T05:49:07.438Z,63.20
2018-05-07T05:51:35.144Z,61.40
2018-05-07T05:54:04.167Z,58.60
2018-05-07T05:56:32.475Z,58.30
2018-05-07T05:58:59.981Z,58.30
2018-05-07T06:01:27.468Z,58.30
2018-05-07T06:03:55.008Z,58.80
2018-05-07T06:06:32.451Z,58.10
2018-05-07T06:09:00.822Z,58.50
2018-05-07T06:11:29.105Z,58.50
2018-05-07T06:13:56.666Z,58.50
2018-05-07T06:16:24.159Z,57.80
2018-05-07T06:18:52.722Z,56.60
2018-05-07T06:21:20.243Z,56.50
2018-05-07T06:23:47.720Z,56.70
2018-05-07T06:26:15.374Z,56.00
2018-05-07T06:28:42.886Z,55.40
2018-05-07T06:31:11.154Z,54.70
2018-05-07T06:33:39.404Z,54.50
2018-05-07T06:36:06.949Z,54.20
2018-05-07T06:38:34.453Z,54.20
2018-05-07T06:41:02.757Z,54.60
2018-05-07T06:43:30.260Z,53.90
2018-05-07T06:45:57.925Z,53.60
2018-05-07T06:48:26.090Z,51.80
2018-05-07T06:50:54.381Z,51.50
2018-05-07T06:53:21.966Z,51.60
2018-05-07T06:55:50.245Z,49.30
2018-05-07T06:58:17.740Z,49.30
2018-05-07T07:00:45.250Z,48.50
2018-05-07T07:03:13.527Z,51.60
2018-05-07T07:05:41.769Z,51.80
2018-05-07T07:08:09.668Z,51.80
2018-05-07T07:10:37.821Z,51.30
2018-05-07T07:13:05.425Z,51.30
2018-05-07T07:15:32.921Z,50.70
2018-05-07T07:18:00.431Z,50.40
2018-05-07T07:20:28.060Z,51.70
2018-05-07T07:22:55.560Z,51.00
2018-05-07T07:25:23.039Z,51.60
2018-05-07T07:27:50.646Z,51.20
2018-05-07T07:30:18.947Z,51.60
2018-05-07T07:32:46.464Z,51.50
2018-05-07T07:35:13.953Z,50.30
2018-05-07T07:37:41.441Z,50.60
2018-05-07T07:40:09.077Z,51.20
2018-05-07T07:42:36.557Z,51.10
2018-05-07T07:45:04.172Z,50.70
2018-05-07T07:47:32.415Z,49.90
2018-05-07T07:49:59.890Z,49.90
2018-05-07T07:52:27.448Z,49.70
2018-05-07T07:54:54.921Z,49.40
2018-05-07T07:57:23.188Z,50.50
2018-05-07T07:59:51.428Z,49.30
2018-05-07T08:02:18.971Z,49.00
2018-05-07T08:04:46.485Z,50.30
2018-05-07T08:07:15.760Z,49.00
2018-05-07T08:09:44.170Z,48.00
2018-05-07T08:12:12.760Z,49.30
2018-05-07T08:14:40.213Z,49.30
2018-05-07T08:17:08.775Z,49.40
2018-05-07T08:19:36.485Z,49.60
2018-05-07T08:22:04.759Z,48.80
2018-05-07T08:24:32.325Z,48.00
2018-05-07T08:26:59.853Z,49.60
2018-05-07T08:29:27.348Z,47.80
2018-05-07T08:31:54.850Z,46.90
2018-05-07T08:34:22.337Z,48.90
2018-05-07T08:36:50.595Z,48.50
2018-05-07T08:39:18.837Z,47.70
2018-05-07T08:41:46.360Z,47.70
2018-05-07T08:44:13.881Z,47.00
2018-05-07T08:46:42.140Z,45.20
2018-05-07T08:49:09.921Z,45.10
2018-05-07T08:51:38.360Z,45.40
2018-05-07T08:54:05.872Z,45.40
2018-05-07T08:56:33.398Z,44.60
2018-05-07T08:59:00.976Z,44.50
2018-05-07T09:01:29.509Z,42.90
2018-05-07T09:03:57.048Z,42.80
2018-05-07T09:06:24.560Z,45.20
2018-05-07T09:08:52.576Z,46.00
2018-05-07T09:11:20.082Z,43.00
2018-05-07T09:13:47.601Z,43.00
2018-05-07T09:16:15.115Z,44.40
2018-05-07T09:18:43.372Z,43.60
2018-05-07T09:21:10.892Z,43.60
2018-05-07T09:23:38.396Z,43.30
2018-05-07T09:26:06.772Z,43.80
2018-05-07T09:28:35.038Z,45.30
2018-05-07T09:31:02.552Z,44.70
2018-05-07T09:33:30.065Z,44.80
2018-05-07T09:35:57.565Z,43.40
2018-05-07T09:38:25.052Z,43.50
2018-05-07T09:40:52.584Z,43.60
2018-05-07T09:43:20.192Z,43.50
2018-05-07T09:45:47.696Z,43.00
2018-05-07T09:48:17.037Z,44.00
2018-05-07T09:53:49.518Z,44.30
2018-05-07T09:56:17.020Z,42.10
2018-05-07T09:58:53.110Z,42.60
2018-05-07T10:01:20.635Z,42.70
2018-05-07T10:03:48.901Z,44.40
2018-05-07T10:06:16.516Z,44.40
2018-05-07T10:08:44.024Z,43.50
2018-05-07T10:11:12.350Z,43.30
2018-05-07T10:13:39.891Z,43.30
2018-05-07T10:16:07.448Z,43.60
2018-05-07T10:18:34.954Z,45.30
2018-05-07T10:21:02.468Z,44.10
2018-05-07T10:23:30.015Z,42.90
2018-05-07T10:25:57.470Z,41.60
2018-05-07T10:28:25.013Z,41.20
2018-05-07T10:30:53.288Z,39.60
2018-05-07T10:33:21.558Z,39.30
2018-05-07T10:35:49.836Z,40.00
2018-05-07T10:38:18.081Z,39.30
2018-05-07T10:40:45.590Z,39.30
2018-05-07T10:43:13.094Z,39.60
2018-05-07T10:45:40.596Z,39.50
2018-05-07T10:48:08.907Z,38.70
2018-05-07T10:50:36.407Z,38.70
2018-05-07T10:53:03.879Z,38.10
2018-05-07T10:55:32.218Z,40.90
2018-05-07T10:57:59.711Z,40.90
2018-05-07T11:00:27.998Z,39.80
2018-05-07T11:02:56.276Z,39.70
2018-05-07T11:05:24.584Z,40.00
2018-05-07T11:07:52.060Z,39.90
2018-05-07T11:10:19.675Z,40.00
2018-05-07T11:12:47.303Z,41.10
2018-05-07T11:15:14.764Z,40.90
2018-05-07T11:17:42.528Z,41.00
2018-05-07T11:20:10.096Z,40.70
2018-05-07T11:22:38.362Z,40.30
2018-05-07T11:25:05.873Z,40.30
2018-05-07T11:27:33.380Z,40.90
2018-05-07T11:30:01.681Z,40.00
2018-05-07T11:32:29.928Z,39.30
2018-05-07T11:34:57.532Z,39.30
2018-05-07T11:37:25.033Z,38.90
2018-05-07T11:39:52.633Z,38.80
2018-05-07T11:42:20.891Z,39.30
2018-05-07T11:44:49.177Z,40.30
2018-05-07T11:47:17.512Z,40.10
2018-05-07T11:49:45.130Z,40.00
2018-05-07T11:52:13.474Z,38.40
2018-05-07T11:54:41.861Z,38.40
2018-05-07T11:57:09.392Z,37.60
2018-05-07T11:59:37.938Z,37.90
2018-05-07T12:02:05.514Z,38.30
2018-05-07T12:04:33.093Z,38.40
2018-05-07T12:07:00.742Z,38.80
2018-05-07T12:09:28.226Z,39.40
2018-05-07T12:11:55.734Z,38.70
2018-05-07T12:14:23.257Z,35.10
2018-05-07T12:16:50.862Z,37.10
2018-05-07T12:19:18.468Z,36.60
2018-05-07T12:21:45.997Z,38.00
2018-05-07T12:24:13.594Z,38.10
2018-05-07T12:26:41.148Z,39.20
2018-05-07T12:29:09.438Z,37.30
2018-05-07T12:31:37.926Z,37.00
2018-05-07T12:34:06.078Z,37.70
2018-05-07T12:36:33.634Z,37.20
2018-05-07T12:39:01.152Z,36.90
2018-05-07T12:41:28.704Z,36.90
2018-05-07T12:43:56.180Z,37.50
2018-05-07T12:46:23.676Z,37.90
2018-05-07T12:48:51.938Z,37.30
2018-05-07T12:51:19.517Z,37.30
2018-05-07T12:53:47.795Z,37.80
2018-05-07T12:56:16.077Z,38.40
2018-05-07T12:58:43.626Z,38.30
2018-05-07T13:01:12.161Z,37.20
2018-05-07T13:03:39.689Z,37.10
2018-05-07T13:06:07.233Z,38.00
2018-05-07T13:08:34.886Z,38.00
2018-05-07T13:11:03.151Z,36.70
2018-05-07T13:13:32.447Z,36.50
2018-05-07T13:15:59.981Z,36.50
2018-05-07T13:18:27.961Z,38.10
2018-05-07T13:20:55.429Z,36.00
2018-05-07T13:23:22.941Z,36.70
2018-05-07T13:25:50.460Z,34.90
2018-05-07T13:28:18.845Z,35.20
2018-05-07T13:30:47.137Z,36.80
2018-05-07T13:33:14.650Z,36.80
2018-05-07T13:35:42.128Z,35.80
2018-05-07T13:38:10.421Z,35.60
2018-05-07T13:40:38.091Z,35.60
2018-05-07T13:43:05.658Z,36.90
2018-05-07T13:45:33.142Z,37.20
2018-05-07T13:48:00.683Z,36.70
2018-05-07T13:50:38.117Z,37.00
2018-05-07T13:53:06.408Z,36.50
2018-05-07T13:55:34.684Z,34.80
2018-05-07T13:58:02.949Z,34.90
2018-05-07T14:00:30.448Z,34.90
2018-05-07T14:02:57.995Z,34.00
2018-05-07T14:05:25.766Z,34.10
2018-05-07T14:07:53.276Z,34.30
2018-05-07T14:10:20.771Z,33.80
2018-05-07T14:12:49.030Z,33.20
2018-05-07T14:15:17.301Z,33.90
2018-05-07T14:17:45.803Z,35.40
2018-05-07T14:20:13.510Z,35.40
2018-05-07T14:22:41.055Z,34.40
2018-05-07T14:25:08.574Z,34.30
2018-05-07T14:27:36.294Z,33.70
2018-05-07T14:30:03.794Z,34.80
2018-05-07T14:32:32.083Z,33.50
2018-05-07T14:34:59.602Z,33.50
2018-05-07T14:37:27.785Z,33.10
2018-05-07T14:39:55.453Z,33.60
2018-05-07T14:42:23.732Z,34.40
2018-05-07T14:44:51.995Z,34.20
2018-05-07T14:47:20.287Z,35.50
2018-05-07T14:49:48.529Z,33.50
2018-05-07T14:52:17.549Z,33.70
2018-05-07T14:54:45.811Z,33.60
2018-05-07T14:57:14.725Z,33.60
2018-05-07T14:59:43.013Z,33.70
2018-05-07T15:02:10.612Z,33.70
2018-05-07T15:04:38.211Z,34.00
2018-05-07T15:07:06.500Z,34.10
2018-05-07T15:09:34.045Z,34.10
2018-05-07T15:12:01.639Z,34.20
2018-05-07T15:14:29.273Z,33.40
2018-05-07T15:16:56.776Z,32.80
2018-05-07T15:19:24.261Z,32.70
2018-05-07T15:21:51.859Z,32.80
2018-05-07T15:24:20.093Z,32.80
2018-05-07T15:26:47.595Z,32.80
2018-05-07T15:29:15.278Z,33.10
2018-05-07T15:31:43.494Z,33.60
2018-05-07T15:34:11.079Z,33.60
2018-05-07T15:36:39.031Z,33.40
2018-05-07T15:39:06.516Z,33.90
2018-05-07T15:41:34.018Z,33.20
2018-05-07T15:44:01.543Z,33.30
2018-05-07T15:46:29.057Z,34.00
2018-05-07T15:48:57.455Z,33.40
2018-05-07T15:51:24.971Z,33.40
2018-05-07T15:53:52.523Z,33.90
2018-05-07T15:56:19.999Z,35.50
2018-05-07T15:58:48.405Z,33.60
2018-05-07T16:01:16.662Z,34.30
2018-05-07T16:03:44.179Z,34.30
2018-05-07T16:06:11.803Z,33.90
2018-05-07T16:08:40.073Z,35.10
2018-05-07T16:11:08.358Z,34.60
2018-05-07T16:13:35.884Z,35.20
2018-05-07T16:16:03.459Z,34.50
2018-05-07T16:18:31.724Z,34.00
2018-05-07T16:21:00.045Z,34.00
2018-05-07T16:23:27.762Z,34.00
2018-05-07T16:25:55.134Z,34.30
2018-05-07T16:28:23.429Z,34.60
2018-05-07T16:30:50.905Z,34.60
2018-05-07T16:36:12.138Z,34.30
2018-05-07T16:38:40.313Z,34.70
2018-05-07T16:41:07.957Z,35.50
2018-05-07T16:43:35.594Z,34.80
2018-05-07T16:46:03.271Z,35.60
2018-05-07T16:48:30.814Z,35.30
2018-05-07T16:50:59.061Z,35.50
2018-05-07T16:53:26.541Z,35.50
2018-05-07T16:55:54.847Z,35.30
2018-05-07T16:58:22.405Z,35.30
2018-05-07T17:00:49.916Z,37.40
2018-05-07T17:03:17.402Z,37.10
2018-05-07T17:05:44.973Z,37.30
2018-05-07T17:08:12.525Z,36.40
2018-05-07T17:10:40.066Z,36.20
2018-05-07T17:13:09.470Z,35.20
2018-05-07T17:15:37.130Z,35.10
2018-05-07T17:18:05.385Z,36.60
2018-05-07T17:20:32.900Z,36.60
2018-05-07T17:23:05.434Z,36.80
2018-05-07T17:25:33.776Z,33.70
2018-05-07T17:28:01.431Z,33.70
2018-05-07T17:30:28.973Z,33.50
2018-05-07T17:32:57.295Z,34.60
2018-05-07T17:35:26.351Z,35.20
2018-05-07T17:37:54.310Z,35.20
2018-05-07T17:40:22.093Z,34.90
2018-05-07T17:42:49.835Z,35.50
2018-05-07T17:45:32.907Z,35.90
2018-05-07T17:48:12.645Z,36.40
2018-05-07T17:50:40.191Z,36.30
2018-05-07T17:53:07.740Z,36.50
2018-05-07T17:55:36.093Z,36.90
2018-05-07T17:58:03.601Z,36.50
2018-05-07T18:00:31.166Z,37.10
2018-05-07T18:02:58.789Z,37.40
2018-05-07T18:05:26.335Z,37.80
2018-05-07T18:07:53.892Z,38.30
2018-05-07T18:10:21.820Z,38.30
2018-05-07T18:13:01.341Z,38.40
2018-05-07T18:15:35.765Z,39.00
2018-05-07T18:18:15.646Z,39.00
2018-05-07T18:20:43.175Z,39.10
2018-05-07T18:23:10.689Z,39.10
2018-05-07T18:25:38.246Z,39.60
2018-05-07T18:28:05.735Z,39.80
2018-05-07T18:30:34.005Z,40.00
2018-05-07T18:33:01.667Z,40.50
2018-05-07T18:35:29.153Z,40.60
2018-05-07T18:37:57.541Z,40.90
2018-05-07T18:40:25.077Z,40.90
2018-05-07T18:42:52.552Z,40.70
2018-05-07T18:45:20.925Z,40.90
2018-05-07T18:47:50.589Z,41.30
2018-05-07T18:50:18.153Z,41.30
2018-05-07T18:52:46.073Z,41.30
2018-05-07T18:55:14.348Z,42.30
2018-05-07T18:57:41.893Z,42.20
2018-05-07T19:00:10.293Z,42.90
2018-05-07T19:02:37.829Z,42.90
2018-05-07T19:05:06.403Z,43.80
2018-05-07T19:07:34.823Z,43.50
2018-05-07T19:10:13.404Z,43.90
2018-05-07T19:12:41.787Z,43.40
2018-05-07T19:15:10.100Z,43.20
2018-05-07T19:17:37.650Z,43.20
2018-05-07T19:20:05.805Z,44.20
2018-05-07T19:22:35.142Z,43.40
2018-05-07T19:25:03.603Z,43.40
2018-05-07T19:27:31.568Z,43.30
2018-05-07T19:29:59.229Z,43.10
2018-05-07T19:32:27.377Z,43.30
2018-05-07T19:34:56.737Z,43.30
2018-05-07T19:37:24.224Z,43.30
2018-05-07T19:39:52.153Z,43.30
2018-05-07T19:42:20.524Z,43.40
2018-05-07T19:44:48.048Z,43.60
2018-05-07T19:47:16.566Z,43.70
2018-05-07T19:49:44.775Z,43.60
2018-05-07T19:52:12.316Z,43.60
2018-05-07T19:54:39.937Z,43.60
2018-05-07T19:57:07.432Z,43.80
2018-05-07T19:59:34.966Z,44.30
2018-05-07T20:02:02.493Z,44.50
2018-05-07T20:04:30.875Z,45.40
2018-05-07T20:06:59.224Z,45.40
2018-05-07T20:09:26.813Z,45.40
2018-05-07T20:11:55.134Z,45.90
2018-05-07T20:14:22.840Z,45.80
2018-05-07T20:17:01.099Z,46.20
2018-05-07T20:19:29.721Z,46.10
2018-05-07T20:21:57.337Z,46.60
2018-05-07T20:24:25.133Z,46.90
2018-05-07T20:26:52.844Z,46.90
2018-05-07T20:29:24.045Z,47.20
2018-05-07T20:31:51.619Z,47.40
2018-05-07T20:34:19.893Z,48.30
2018-05-07T20:36:48.183Z,48.80
2018-05-07T20:39:16.496Z,48.70
2018-05-07T20:41:44.020Z,48.80
2018-05-07T20:44:11.627Z,48.90
2018-05-07T20:46:39.199Z,49.00
2018-05-07T20:49:07.496Z,49.40
2018-05-07T20:51:35.154Z,49.50
2018-05-07T20:54:03.377Z,49.80
2018-05-07T20:56:31.153Z,50.60
2018-05-07T20:58:58.729Z,50.10
2018-05-07T21:01:26.364Z,50.40
2018-05-07T21:03:54.347Z,50.60
2018-05-07T21:06:22.308Z,50.70
2018-05-07T21:08:49.856Z,50.90
2018-05-07T21:11:17.400Z,51.10
2018-05-07T21:13:45.493Z,51.10
2018-05-07T21:16:23.901Z,51.30
2018-05-07T21:18:51.403Z,51.50
2018-05-07T21:21:19.015Z,51.60
2018-05-07T21:23:46.649Z,51.60
2018-05-07T21:26:14.950Z,51.90
2018-05-07T21:28:42.460Z,51.80
2018-05-07T21:31:09.973Z,51.80
2018-05-07T21:33:37.495Z,51.90
2018-05-07T21:36:05.793Z,52.40
2018-05-07T21:38:33.313Z,52.40
2018-05-07T21:41:00.923Z,52.50
2018-05-07T21:43:28.426Z,52.50
2018-05-07T21:45:55.915Z,52.70
2018-05-07T21:48:23.578Z,52.80
2018-05-07T21:50:51.879Z,53.00
2018-05-07T21:53:19.705Z,53.00
2018-05-07T21:55:47.973Z,53.70
2018-05-07T21:58:16.268Z,53.40
2018-05-07T22:00:44.578Z,53.30
2018-05-07T22:03:12.087Z,53.30
2018-05-07T22:05:39.583Z,53.40
2018-05-07T22:08:07.161Z,53.60
2018-05-07T22:10:34.646Z,53.70
2018-05-07T22:13:02.949Z,53.90
2018-05-07T22:15:31.336Z,54.10
2018-05-07T22:17:58.848Z,54.10
2018-05-07T22:20:26.449Z,54.20
2018-05-07T22:22:54.818Z,54.40
2018-05-07T22:25:23.153Z,54.50
2018-05-07T22:27:50.641Z,54.50
2018-05-07T22:30:18.913Z,54.80
2018-05-07T22:32:48.129Z,54.90
2018-05-07T22:35:16.400Z,55.20
2018-05-07T22:37:44.683Z,55.20
2018-05-07T22:40:12.968Z,55.40
2018-05-07T22:42:41.051Z,55.40
2018-05-07T22:45:08.566Z,55.50
2018-05-07T22:47:36.141Z,55.60
2018-05-07T22:50:04.488Z,55.90
2018-05-07T22:52:32.116Z,55.90
2018-05-07T22:57:59.317Z,56.20
2018-05-07T23:00:26.845Z,56.60
2018-05-07T23:02:54.478Z,56.80
2018-05-07T23:05:22.882Z,57.20
2018-05-07T23:07:50.390Z,57.20
2018-05-07T23:10:17.925Z,57.40
2018-05-07T23:12:46.348Z,57.50
2018-05-07T23:15:14.619Z,57.80
2018-05-07T23:17:42.879Z,58.00
2018-05-07T23:20:10.427Z,57.90
2018-05-07T23:22:37.930Z,57.80
2018-05-07T23:25:05.468Z,57.90
2018-05-07T23:27:33.729Z,58.00
2018-05-07T23:30:01.242Z,58.00
2018-05-07T23:32:28.867Z,58.10
2018-05-07T23:34:57.169Z,58.10
2018-05-07T23:37:24.697Z,58.10
2018-05-07T23:39:52.957Z,58.70
2018-05-07T23:42:20.432Z,58.60
2018-05-07T23:44:48.753Z,59.20
2018-05-07T23:47:16.243Z,59.10
2018-05-07T23:49:43.836Z,59.50
2018-05-07T23:52:12.086Z,60.20
2018-05-07T23:54:39.568Z,60.20
2018-05-07T23:57:07.076Z,60.70
2018-05-07T23:59:34.608Z,60.80
